createdAt,value
2022-08-25T00:02:04.733Z,97428.25
2022-08-25T00:05:06.518Z,97415.69
2022-08-25T00:08:08.432Z,97411.59
2022-08-25T00:11:12.176Z,97419.22
2022-08-25T00:14:15.150Z,97412.50
2022-08-25T00:17:16.602Z,97414.97
2022-08-25T00:20:18.471Z,97424.28
2022-08-25T00:23:20.314Z,97421.59
2022-08-25T00:26:21.899Z,97425.25
2022-08-25T00:29:25.770Z,97414.06
2022-08-25T00:32:27.124Z,97421.50
2022-08-25T00:35:28.499Z,97417.16
2022-08-25T00:38:29.883Z,97417.88
2022-08-25T00:41:31.642Z,97420.34
2022-08-25T00:44:34.037Z,97418.34
2022-08-25T00:47:36.122Z,97412.84
2022-08-25T00:50:37.518Z,97413.81
2022-08-25T00:53:39.548Z,97409.97
2022-08-25T00:56:41.010Z,97408.13
2022-08-25T00:59:43.372Z,97409.22
2022-08-25T01:02:44.948Z,97406.53
2022-08-25T01:05:46.749Z,97409.47
2022-08-25T01:08:48.277Z,97405.41
2022-08-25T01:11:50.014Z,97398.25
2022-08-25T01:14:51.449Z,97401.75
2022-08-25T01:17:54.849Z,97405.81
2022-08-25T01:20:57.434Z,97397.72
2022-08-25T01:23:59.856Z,97387.16
2022-08-25T01:27:01.325Z,97393.16
2022-08-25T01:30:02.985Z,97390.31
2022-08-25T01:33:05.601Z,97394.09
2022-08-25T01:36:07.142Z,97399.22
2022-08-25T01:39:08.988Z,97396.78
2022-08-25T01:42:13.233Z,97396.91
2022-08-25T01:45:14.994Z,97404.00
2022-08-25T01:48:16.544Z,97396.53
2022-08-25T01:51:20.035Z,97391.91
2022-08-25T01:54:21.730Z,97386.53
2022-08-25T01:57:23.147Z,97397.75
2022-08-25T02:00:24.576Z,97399.06
2022-08-25T02:03:27.111Z,97393.72
2022-08-25T02:06:32.121Z,97397.09
2022-08-25T02:09:34.922Z,97397.41
2022-08-25T02:12:36.751Z,97395.75
2022-08-25T02:15:43.087Z,97397.06
2022-08-25T02:18:46.254Z,97398.94
2022-08-25T02:21:47.793Z,97407.81
2022-08-25T02:24:49.489Z,97403.44
2022-08-25T02:27:50.964Z,97393.63
2022-08-25T02:30:52.960Z,97388.00
2022-08-25T02:34:00.129Z,97386.09
2022-08-25T02:37:02.038Z,97384.16
2022-08-25T02:40:04.628Z,97383.63
2022-08-25T02:43:06.077Z,97393.38
2022-08-25T02:46:07.939Z,97394.69
2022-08-25T02:49:10.149Z,97394.69
2022-08-25T02:52:11.546Z,97390.19
2022-08-25T02:55:14.132Z,97387.56
2022-08-25T02:58:15.852Z,97392.56
2022-08-25T03:01:17.654Z,97397.19
2022-08-25T03:04:19.097Z,97401.44
2022-08-25T03:07:21.019Z,97392.69
2022-08-25T03:10:22.908Z,97395.22
2022-08-25T03:13:24.286Z,97393.38
2022-08-25T03:16:27.751Z,97394.41
2022-08-25T03:19:29.460Z,97393.38
2022-08-25T03:22:31.072Z,97399.09
2022-08-25T03:25:51.561Z,97394.56
2022-08-25T03:28:55.313Z,97382.38
2022-08-25T03:31:58.226Z,97385.22
2022-08-25T03:35:01.505Z,97393.38
2022-08-25T03:38:03.474Z,97392.19
2022-08-25T03:41:16.003Z,97399.56
2022-08-25T03:44:17.957Z,97387.16
2022-08-25T03:47:19.339Z,97385.06
2022-08-25T03:50:21.861Z,97374.91
2022-08-25T03:53:23.793Z,97373.06
2022-08-25T03:56:25.305Z,97370.00
2022-08-25T03:59:27.213Z,97361.22
2022-08-25T04:02:28.809Z,97364.03
2022-08-25T04:05:30.235Z,97354.66
2022-08-25T04:08:34.665Z,97369.00
2022-08-25T04:11:36.204Z,97373.88
2022-08-25T04:14:37.904Z,97373.88
2022-08-25T04:17:39.974Z,97373.88
2022-08-25T04:20:46.420Z,97375.38
2022-08-25T04:23:49.080Z,97380.78
2022-08-25T04:26:51.080Z,97382.44
2022-08-25T04:29:52.541Z,97386.81
2022-08-25T04:32:53.925Z,97384.31
2022-08-25T04:35:55.637Z,97377.06
2022-08-25T04:38:57.022Z,97375.41
2022-08-25T04:42:00.340Z,97382.94
2022-08-25T04:45:01.944Z,97386.50
2022-08-25T04:48:03.620Z,97384.56
2022-08-25T04:51:08.718Z,97395.72
2022-08-25T04:54:12.498Z,97380.75
2022-08-25T04:57:13.889Z,97385.66
2022-08-25T05:00:15.681Z,97385.66
2022-08-25T05:03:17.343Z,97396.06
2022-08-25T05:06:18.722Z,97401.03
2022-08-25T05:09:20.115Z,97406.31
2022-08-25T05:12:23.193Z,97395.00
2022-08-25T05:15:44.629Z,97391.53
2022-08-25T05:18:46.027Z,97381.84
2022-08-25T05:21:47.925Z,97378.38
2022-08-25T05:24:49.405Z,97379.59
2022-08-25T05:27:50.773Z,97379.28
2022-08-25T05:30:57.510Z,97380.28
2022-08-25T05:36:49.302Z,97389.38
2022-08-25T05:39:50.835Z,97394.03
2022-08-25T05:42:52.323Z,97388.28
2022-08-25T05:45:58.018Z,97380.75
2022-08-25T05:48:59.629Z,97381.94
2022-08-25T05:52:01.115Z,97375.91
2022-08-25T05:55:03.454Z,97379.44
2022-08-25T05:58:05.234Z,97373.53
2022-08-25T06:01:25.968Z,97373.53
2022-08-25T06:04:27.969Z,97370.00
2022-08-25T06:07:29.708Z,97373.38
2022-08-25T06:10:31.678Z,97363.22
2022-08-25T06:13:33.659Z,97363.31
2022-08-25T06:16:35.202Z,97366.84
2022-08-25T06:19:37.139Z,97367.31
2022-08-25T06:22:43.017Z,97367.34
2022-08-25T06:25:53.057Z,97363.53
2022-08-25T06:28:54.554Z,97362.91
2022-08-25T06:31:56.105Z,97362.06
2022-08-25T06:34:58.905Z,97363.03
2022-08-25T06:38:00.495Z,97367.81
2022-08-25T06:41:06.318Z,97357.28
2022-08-25T06:44:08.029Z,97359.97
2022-08-25T06:47:09.744Z,97357.03
2022-08-25T06:50:11.349Z,97342.88
2022-08-25T06:53:12.867Z,97356.25
2022-08-25T06:56:16.166Z,97352.44
2022-08-25T06:59:18.212Z,97345.75
2022-08-25T07:02:21.870Z,97340.78
2022-08-25T07:05:33.664Z,97341.91
2022-08-25T07:08:42.894Z,97338.44
2022-08-25T07:11:45.527Z,97334.50
2022-08-25T07:15:03.613Z,97341.28
2022-08-25T07:18:08.621Z,97330.41
2022-08-25T07:21:14.401Z,97340.72
2022-08-25T07:24:16.362Z,97336.88
2022-08-25T07:27:18.088Z,97333.22
2022-08-25T07:30:21.713Z,97322.78
2022-08-25T07:33:23.185Z,97319.56
2022-08-25T07:36:25.469Z,97321.97
2022-08-25T07:39:29.096Z,97329.88
2022-08-25T07:42:30.802Z,97321.47
2022-08-25T07:45:35.116Z,97317.91
2022-08-25T07:48:36.841Z,97325.84
2022-08-25T07:51:38.405Z,97313.47
2022-08-25T07:55:00.254Z,97332.44
2022-08-25T07:58:03.254Z,97316.47
2022-08-25T08:01:05.676Z,97321.31
2022-08-25T08:04:07.713Z,97310.66
2022-08-25T08:07:12.091Z,97317.56
2022-08-25T08:13:41.211Z,97314.28
2022-08-25T08:16:43.033Z,97313.69
2022-08-25T08:19:45.545Z,97315.00
2022-08-25T08:22:47.186Z,97317.75
2022-08-25T08:25:49.334Z,97318.22
2022-08-25T08:28:52.037Z,97312.34
2022-08-25T08:31:53.794Z,97314.84
2022-08-25T08:34:55.278Z,97309.88
2022-08-25T08:37:57.077Z,97305.06
2022-08-25T08:45:22.229Z,97305.28
2022-08-25T08:48:42.442Z,97307.56
2022-08-25T08:51:53.809Z,97291.88
2022-08-25T08:55:01.994Z,97303.34
2022-08-25T08:58:16.941Z,97304.56
2022-08-25T09:01:26.583Z,97295.44
2022-08-25T09:04:41.268Z,97302.81
2022-08-25T09:07:54.907Z,97295.47
2022-08-25T09:11:16.565Z,97285.81
2022-08-25T09:14:20.467Z,97301.66
2022-08-25T09:17:54.730Z,97294.16
2022-08-25T09:21:10.407Z,97291.44
2022-08-25T09:24:32.259Z,97285.13
2022-08-25T09:27:55.550Z,97290.91
2022-08-25T09:31:11.658Z,97286.69
2022-08-25T09:34:21.114Z,97282.03
2022-08-25T09:37:24.298Z,97283.00
2022-08-25T09:40:28.917Z,97281.06
2022-08-25T09:43:37.447Z,97275.88
2022-08-25T09:46:39.107Z,97277.13
2022-08-25T09:49:43.504Z,97277.28
2022-08-25T09:52:45.790Z,97270.84
2022-08-25T09:55:58.476Z,97268.72
2022-08-25T09:59:20.710Z,97256.09
2022-08-25T10:02:36.422Z,97257.50
2022-08-25T10:06:13.298Z,97251.00
2022-08-25T10:09:29.333Z,97262.38
2022-08-25T10:12:42.714Z,97250.09
2022-08-25T10:15:45.388Z,97241.69
2022-08-25T10:19:10.712Z,97243.00
2022-08-25T10:22:32.257Z,97246.53
2022-08-25T10:25:33.897Z,97238.31
2022-08-25T10:28:59.353Z,97233.63
2022-08-25T10:32:12.156Z,97221.94
2022-08-25T10:35:37.173Z,97230.63
2022-08-25T10:38:43.977Z,97227.78
2022-08-25T10:42:30.692Z,97226.63
2022-08-25T10:45:43.666Z,97215.03
2022-08-25T10:48:53.339Z,97205.06
2022-08-25T10:52:07.430Z,97207.50
2022-08-25T10:56:00.293Z,97204.03
2022-08-25T10:59:33.312Z,97193.81
2022-08-25T11:02:43.473Z,97183.38
2022-08-25T11:05:58.649Z,97187.91
2022-08-25T11:09:08.174Z,97189.59
2022-08-25T11:12:16.853Z,97186.78
2022-08-25T11:15:27.761Z,97178.72
2022-08-25T11:18:31.826Z,97178.72
2022-08-25T11:21:54.005Z,97179.66
2022-08-25T11:25:26.098Z,97184.88
2022-08-25T11:28:35.823Z,97171.41
2022-08-25T11:31:40.029Z,97167.28
2022-08-25T11:34:43.811Z,97154.47
2022-08-25T11:37:57.654Z,97163.28
2022-08-25T11:41:23.760Z,97168.25
2022-08-25T11:44:54.938Z,97164.69
2022-08-25T11:48:29.217Z,97160.88
2022-08-25T11:51:41.092Z,97169.66
2022-08-25T11:54:44.104Z,97160.19
2022-08-25T11:57:53.287Z,97163.09
2022-08-25T12:00:57.301Z,97162.69
2022-08-25T12:04:44.528Z,97172.25
2022-08-25T12:07:47.047Z,97171.41
2022-08-25T12:11:11.076Z,97161.31
2022-08-25T12:14:22.072Z,97157.00
2022-08-25T12:17:27.018Z,97152.09
2022-08-25T12:20:59.995Z,97133.19
2022-08-25T12:24:01.383Z,97137.72
2022-08-25T12:27:06.687Z,97141.91
2022-08-25T12:30:24.513Z,97134.47
2022-08-25T12:34:27.695Z,97143.56
2022-08-25T12:37:29.915Z,97144.31
2022-08-25T12:40:36.233Z,97142.22
2022-08-25T12:43:42.128Z,97138.16
2022-08-25T12:46:44.577Z,97136.81
2022-08-25T12:49:46.364Z,97134.09
2022-08-25T12:52:52.106Z,97139.34
2022-08-25T12:56:27.369Z,97137.22
2022-08-25T12:59:35.212Z,97135.22
2022-08-25T13:02:52.616Z,97131.19
2022-08-25T13:06:14.988Z,97130.56
2022-08-25T13:09:39.694Z,97132.94
2022-08-25T13:13:04.945Z,97129.53
2022-08-25T13:16:15.414Z,97127.63
2022-08-25T13:19:19.735Z,97123.03
2022-08-25T13:22:23.378Z,97112.75
2022-08-25T13:25:32.612Z,97110.16
2022-08-25T13:28:40.766Z,97101.69
2022-08-25T13:31:51.563Z,97098.91
2022-08-25T13:35:14.548Z,97101.50
2022-08-25T13:38:19.234Z,97100.19
2022-08-25T13:41:29.576Z,97095.66
2022-08-25T13:44:39.018Z,97092.69
2022-08-25T13:47:43.866Z,97089.28
2022-08-25T13:50:51.786Z,97085.13
2022-08-25T13:54:02.711Z,97087.25
2022-08-25T13:57:38.907Z,97078.78
2022-08-25T14:00:59.711Z,97078.78
2022-08-25T14:04:51.729Z,97073.19
2022-08-25T14:08:09.199Z,97074.38
2022-08-25T14:11:33.236Z,97070.47
2022-08-25T14:14:35.450Z,97074.66
2022-08-25T14:17:40.419Z,97072.31
2022-08-25T14:20:50.898Z,97068.31
2022-08-25T14:23:53.277Z,97074.47
2022-08-25T14:26:54.952Z,97064.38
2022-08-25T14:29:56.436Z,97068.88
2022-08-25T14:32:58.539Z,97071.16
2022-08-25T14:36:04.942Z,97061.97
2022-08-25T14:39:08.844Z,97063.84
2022-08-25T14:42:11.666Z,97059.97
2022-08-25T14:45:15.145Z,97055.94
2022-08-25T14:48:25.962Z,97053.47
2022-08-25T14:51:30.501Z,97057.03
2022-08-25T14:54:33.695Z,97048.34
2022-08-25T14:57:37.354Z,97049.88
2022-08-25T15:00:43.492Z,97043.72
2022-08-25T15:03:48.327Z,97038.34
2022-08-25T15:06:55.625Z,97042.72
2022-08-25T15:09:57.072Z,97035.75
2022-08-25T15:12:58.553Z,97040.00
2022-08-25T15:16:00.275Z,97032.53
2022-08-25T15:19:06.776Z,97033.34
2022-08-25T15:22:08.535Z,97030.94
2022-08-25T15:25:12.236Z,97035.81
2022-08-25T15:28:17.265Z,97027.97
2022-08-25T15:31:20.619Z,97022.25
2022-08-25T15:34:22.100Z,97023.72
2022-08-25T15:37:23.573Z,97025.38
2022-08-25T15:40:25.553Z,97017.69
2022-08-25T15:43:27.035Z,97023.66
2022-08-25T15:46:30.614Z,97020.59
2022-08-25T15:49:32.251Z,97012.03
2022-08-25T15:52:46.699Z,97016.22
2022-08-25T15:55:49.894Z,97008.09
2022-08-25T15:58:55.648Z,97006.69
2022-08-25T16:01:57.661Z,97001.63
2022-08-25T16:04:59.213Z,97010.25
2022-08-25T16:08:00.664Z,97008.88
2022-08-25T16:11:05.513Z,97008.09
2022-08-25T16:14:09.117Z,97007.91
2022-08-25T16:17:11.827Z,97005.00
2022-08-25T16:20:15.980Z,97006.84
2022-08-25T16:23:19.384Z,97001.03
2022-08-25T16:26:21.264Z,97007.75
2022-08-25T16:29:22.820Z,96999.88
2022-08-25T16:32:24.323Z,97005.00
2022-08-25T16:35:27.996Z,96999.97
2022-08-25T16:38:31.107Z,96993.94
2022-08-25T16:41:35.806Z,96989.91
2022-08-25T16:44:38.886Z,96988.84
2022-08-25T16:47:42.816Z,96990.34
2022-08-25T16:50:44.350Z,96990.38
2022-08-25T16:54:06.597Z,96983.75
2022-08-25T16:57:08.368Z,96992.75
2022-08-25T17:00:13.359Z,96985.28
2022-08-25T17:03:14.810Z,96990.91
2022-08-25T17:06:17.330Z,96988.38
2022-08-25T17:09:23.785Z,96988.34
2022-08-25T17:12:26.935Z,96975.72
2022-08-25T17:15:28.527Z,96981.28
2022-08-25T17:18:30.622Z,96985.09
2022-08-25T17:21:36.168Z,96978.72
2022-08-25T17:24:37.620Z,96978.72
2022-08-25T17:27:41.996Z,96983.34
2022-08-25T17:30:44.578Z,96988.41
2022-08-25T17:33:46.892Z,96991.75
2022-08-25T17:36:51.529Z,96988.53
2022-08-25T17:39:56.743Z,96988.31
2022-08-25T17:43:05.866Z,96992.28
2022-08-25T17:46:12.522Z,96991.41
2022-08-25T17:49:15.742Z,96990.72
2022-08-25T17:52:17.569Z,96995.47
2022-08-25T17:55:24.150Z,96986.84
2022-08-25T17:58:27.307Z,96984.84
2022-08-25T18:01:31.763Z,96989.97
2022-08-25T18:04:33.315Z,96994.63
2022-08-25T18:07:36.427Z,96993.66
2022-08-25T18:10:38.525Z,96995.91
2022-08-25T18:13:42.517Z,96993.50
2022-08-25T18:16:45.763Z,97000.28
2022-08-25T18:19:48.557Z,97000.59
2022-08-25T18:22:50.857Z,97008.53
2022-08-25T18:26:01.065Z,97002.25
2022-08-25T18:29:03.958Z,97011.28
2022-08-25T18:32:05.538Z,97006.63
2022-08-25T18:35:08.609Z,97009.00
2022-08-25T18:38:29.233Z,97012.97
2022-08-25T18:41:36.571Z,97009.94
2022-08-25T18:44:38.029Z,97015.38
2022-08-25T18:47:39.477Z,97023.63
2022-08-25T18:50:42.246Z,97007.50
2022-08-25T18:53:50.533Z,97020.97
2022-08-25T18:56:53.256Z,97018.75
2022-08-25T18:59:55.343Z,97020.19
2022-08-25T19:02:58.477Z,97019.75
2022-08-25T19:06:00.537Z,97025.31
2022-08-25T19:09:02.301Z,97024.41
2022-08-25T19:12:05.318Z,97031.75
2022-08-25T19:15:07.609Z,97038.50
2022-08-25T19:18:10.894Z,97028.66
2022-08-25T19:21:12.640Z,97038.81
2022-08-25T19:24:14.447Z,97042.56
2022-08-25T19:27:16.783Z,97034.47
2022-08-25T19:30:25.843Z,97040.75
2022-08-25T19:33:42.596Z,97039.88
2022-08-25T19:36:47.435Z,97035.81
2022-08-25T19:39:54.100Z,97035.09
2022-08-25T19:42:55.765Z,97037.38
2022-08-25T19:45:57.262Z,97041.59
2022-08-25T19:49:06.336Z,97040.22
2022-08-25T19:52:11.938Z,97034.78
2022-08-25T19:55:13.690Z,97042.31
2022-08-25T19:58:15.750Z,97039.97
2022-08-25T20:01:19.718Z,97032.69
2022-08-25T20:04:21.593Z,97038.19
2022-08-25T20:07:27.847Z,97042.38
2022-08-25T20:10:31.561Z,97044.66
2022-08-25T20:13:33.252Z,97043.19
2022-08-25T20:16:36.574Z,97040.25
2022-08-25T20:19:38.201Z,97045.91
2022-08-25T20:22:41.598Z,97048.59
2022-08-25T20:25:44.685Z,97050.06
2022-08-25T20:28:46.295Z,97050.28
2022-08-25T20:31:47.994Z,97051.97
2022-08-25T20:34:51.184Z,97054.88
2022-08-25T20:37:54.034Z,97057.16
2022-08-25T20:40:55.551Z,97059.47
2022-08-25T20:43:57.282Z,97051.34
2022-08-25T20:47:00.735Z,97053.63
2022-08-25T20:50:06.738Z,97053.22
2022-08-25T20:53:10.285Z,97054.91
2022-08-25T20:56:17.254Z,97059.00
2022-08-25T20:59:18.746Z,97061.50
2022-08-25T21:02:22.077Z,97063.16
2022-08-25T21:05:23.833Z,97059.41
2022-08-25T21:08:25.604Z,97065.66
2022-08-25T21:11:27.372Z,97066.50
2022-08-25T21:14:28.942Z,97060.84
2022-08-25T21:17:30.431Z,97072.94
2022-08-25T21:20:32.576Z,97070.94
2022-08-25T21:23:34.811Z,97078.47
2022-08-25T21:26:37.612Z,97084.34
2022-08-25T21:29:54.561Z,97072.81
2022-08-25T21:32:56.590Z,97080.09
2022-08-25T21:35:58.180Z,97073.50
2022-08-25T21:39:00.571Z,97087.09
2022-08-25T21:42:03.352Z,97087.88
2022-08-25T21:45:05.118Z,97082.00
2022-08-25T21:48:12.782Z,97081.97
2022-08-25T21:51:18.116Z,97080.56
2022-08-25T21:54:20.857Z,97077.50
2022-08-25T21:57:25.702Z,97077.31
2022-08-25T22:00:27.564Z,97074.00
2022-08-25T22:03:29.034Z,97077.41
2022-08-25T22:06:31.186Z,97069.53
2022-08-25T22:09:33.023Z,97068.81
2022-08-25T22:12:34.746Z,97068.81
2022-08-25T22:15:36.262Z,97059.34
2022-08-25T22:18:38.773Z,97065.97
2022-08-25T22:21:44.288Z,97060.91
2022-08-25T22:24:46.166Z,97060.91
2022-08-25T22:27:47.810Z,97062.22
2022-08-25T22:31:01.734Z,97063.41
2022-08-25T22:34:03.972Z,97056.72
2022-08-25T22:37:07.244Z,97059.31
2022-08-25T22:40:10.781Z,97062.22
2022-08-25T22:43:12.721Z,97056.97
2022-08-25T22:46:14.826Z,97061.97
2022-08-25T22:49:18.853Z,97057.16
2022-08-25T22:52:20.469Z,97068.41
2022-08-25T22:55:33.485Z,97059.41
2022-08-25T22:58:35.966Z,97070.19
2022-08-25T23:01:39.678Z,97059.00
2022-08-25T23:04:43.427Z,97059.09
2022-08-25T23:07:45.234Z,97059.81
2022-08-25T23:10:50.296Z,97048.59
2022-08-25T23:13:55.418Z,97045.53
2022-08-25T23:16:56.949Z,97043.88
2022-08-25T23:19:59.473Z,97052.41
2022-08-25T23:23:01.010Z,97055.44
2022-08-25T23:26:03.273Z,97048.13
2022-08-25T23:29:17.883Z,97044.94
2022-08-25T23:32:20.521Z,97042.66
2022-08-25T23:35:22.500Z,97042.31
2022-08-25T23:38:24.097Z,97044.81
2022-08-25T23:41:26.037Z,97054.47
2022-08-25T23:44:28.249Z,97048.81
2022-08-25T23:47:29.741Z,97047.78
2022-08-25T23:50:31.877Z,97040.06
2022-08-25T23:53:35.230Z,97047.00
2022-08-25T23:56:36.876Z,97056.91
2022-08-25T23:59:44.078Z,97056.28
